sensor_id;sensor_type;location;lat;lon;timestamp;pressure;altitude;pressure_sealevel;temperature;humidity
34566;BME280;20803;42.676;26.348;2023-08-12T00:01:17;99028.72;;;24.31;48.31
34566;BME280;20803;42.676;26.348;2023-08-12T00:03:45;99035.16;;;24.31;48.55
34566;BME280;20803;42.676;26.348;2023-08-12T00:06:10;99036.00;;;24.37;48.64
34566;BME280;20803;42.676;26.348;2023-08-12T00:08:36;99031.59;;;24.36;48.79
34566;BME280;20803;42.676;26.348;2023-08-12T00:11:01;99024.09;;;24.33;49.05
34566;BME280;20803;42.676;26.348;2023-08-12T00:13:27;99035.72;;;24.35;49.04
34566;BME280;20803;42.676;26.348;2023-08-12T00:15:52;99025.44;;;24.38;49.14
34566;BME280;20803;42.676;26.348;2023-08-12T00:18:18;99033.19;;;24.37;49.14
34566;BME280;20803;42.676;26.348;2023-08-12T00:20:43;99032.34;;;24.31;49.35
34566;BME280;20803;42.676;26.348;2023-08-12T00:23:08;99031.59;;;24.16;49.41
34566;BME280;20803;42.676;26.348;2023-08-12T00:25:34;99026.69;;;24.16;49.50
34566;BME280;20803;42.676;26.348;2023-08-12T00:28:00;99031.69;;;24.21;49.95
34566;BME280;20803;42.676;26.348;2023-08-12T00:30:25;99027.78;;;24.19;50.17
34566;BME280;20803;42.676;26.348;2023-08-12T00:32:51;99024.72;;;24.22;50.01
34566;BME280;20803;42.676;26.348;2023-08-12T00:35:16;99027.63;;;24.28;50.22
34566;BME280;20803;42.676;26.348;2023-08-12T00:37:42;99035.22;;;24.37;50.10
34566;BME280;20803;42.676;26.348;2023-08-12T00:40:08;99020.47;;;24.33;50.48
34566;BME280;20803;42.676;26.348;2023-08-12T00:42:33;99020.19;;;24.31;49.88
34566;BME280;20803;42.676;26.348;2023-08-12T00:44:59;99028.16;;;24.27;50.13
34566;BME280;20803;42.676;26.348;2023-08-12T00:47:24;99023.00;;;24.10;50.59
34566;BME280;20803;42.676;26.348;2023-08-12T00:49:50;99018.16;;;24.16;50.79
34566;BME280;20803;42.676;26.348;2023-08-12T00:52:17;99016.09;;;24.17;50.38
34566;BME280;20803;42.676;26.348;2023-08-12T00:54:43;99014.63;;;24.21;50.35
34566;BME280;20803;42.676;26.348;2023-08-12T00:57:09;99016.09;;;24.17;50.61
34566;BME280;20803;42.676;26.348;2023-08-12T00:59:38;99011.94;;;24.12;50.49
34566;BME280;20803;42.676;26.348;2023-08-12T01:02:04;99007.03;;;24.13;50.60
34566;BME280;20803;42.676;26.348;2023-08-12T01:04:30;99009.03;;;24.07;50.91
34566;BME280;20803;42.676;26.348;2023-08-12T01:06:55;99003.63;;;23.89;50.79
34566;BME280;20803;42.676;26.348;2023-08-12T01:09:21;99001.84;;;23.91;51.00
34566;BME280;20803;42.676;26.348;2023-08-12T01:12:23;99002.84;;;23.88;50.94
34566;BME280;20803;42.676;26.348;2023-08-12T01:15:21;98992.06;;;23.92;50.65
34566;BME280;20803;42.676;26.348;2023-08-12T01:17:47;98994.47;;;23.79;51.16
34566;BME280;20803;42.676;26.348;2023-08-12T01:20:17;98996.16;;;23.71;51.58
34566;BME280;20803;42.676;26.348;2023-08-12T01:22:56;98991.22;;;23.66;51.56
34566;BME280;20803;42.676;26.348;2023-08-12T01:25:24;98984.94;;;23.62;51.70
34566;BME280;20803;42.676;26.348;2023-08-12T01:27:49;98994.31;;;23.68;51.35
34566;BME280;20803;42.676;26.348;2023-08-12T01:30:15;98988.78;;;23.79;51.06
34566;BME280;20803;42.676;26.348;2023-08-12T01:35:44;98990.19;;;23.69;51.18
34566;BME280;20803;42.676;26.348;2023-08-12T01:38:12;98992.31;;;23.74;51.21
34566;BME280;20803;42.676;26.348;2023-08-12T01:40:38;98993.00;;;23.83;50.85
34566;BME280;20803;42.676;26.348;2023-08-12T01:43:05;98997.00;;;23.97;50.94
34566;BME280;20803;42.676;26.348;2023-08-12T01:45:33;98998.31;;;23.96;50.83
34566;BME280;20803;42.676;26.348;2023-08-12T01:47:59;98998.59;;;23.98;50.59
34566;BME280;20803;42.676;26.348;2023-08-12T01:50:24;99001.41;;;23.98;50.68
34566;BME280;20803;42.676;26.348;2023-08-12T01:52:51;99001.84;;;23.91;50.90
34566;BME280;20803;42.676;26.348;2023-08-12T01:55:16;99001.16;;;23.96;50.59
34566;BME280;20803;42.676;26.348;2023-08-12T01:57:41;99003.28;;;24.01;50.70
34566;BME280;20803;42.676;26.348;2023-08-12T02:00:07;99001.22;;;24.02;50.38
34566;BME280;20803;42.676;26.348;2023-08-12T02:02:33;99008.53;;;24.08;50.66
34566;BME280;20803;42.676;26.348;2023-08-12T02:04:58;99010.38;;;24.11;50.17
34566;BME280;20803;42.676;26.348;2023-08-12T02:07:24;99011.88;;;24.07;50.48
34566;BME280;20803;42.676;26.348;2023-08-12T02:09:49;99009.50;;;24.05;50.38
34566;BME280;20803;42.676;26.348;2023-08-12T02:12:15;99016.69;;;24.01;50.26
34566;BME280;20803;42.676;26.348;2023-08-12T02:14:40;99020.09;;;24.05;50.09
34566;BME280;20803;42.676;26.348;2023-08-12T02:17:05;99021.22;;;23.93;50.35
34566;BME280;20803;42.676;26.348;2023-08-12T02:19:33;99019.31;;;23.84;50.35
34566;BME280;20803;42.676;26.348;2023-08-12T02:22:00;99023.00;;;23.90;50.38
34566;BME280;20803;42.676;26.348;2023-08-12T02:24:26;99016.41;;;23.99;50.16
34566;BME280;20803;42.676;26.348;2023-08-12T02:26:52;99022.38;;;24.01;50.33
34566;BME280;20803;42.676;26.348;2023-08-12T02:29:17;99037.84;;;24.00;50.18
34566;BME280;20803;42.676;26.348;2023-08-12T02:31:42;99022.34;;;23.80;51.28
34566;BME280;20803;42.676;26.348;2023-08-12T02:34:08;99021.00;;;23.76;50.75
34566;BME280;20803;42.676;26.348;2023-08-12T02:36:33;99030.56;;;23.43;51.81
34566;BME280;20803;42.676;26.348;2023-08-12T02:38:59;99037.25;;;23.26;52.94
34566;BME280;20803;42.676;26.348;2023-08-12T02:41:24;99048.19;;;23.18;53.06
34566;BME280;20803;42.676;26.348;2023-08-12T02:43:49;99047.44;;;23.03;53.96
34566;BME280;20803;42.676;26.348;2023-08-12T02:46:15;99043.16;;;22.93;54.03
34566;BME280;20803;42.676;26.348;2023-08-12T02:48:41;99041.75;;;23.03;54.03
34566;BME280;20803;42.676;26.348;2023-08-12T02:51:07;99036.84;;;23.18;53.22
34566;BME280;20803;42.676;26.348;2023-08-12T02:53:32;99028.44;;;23.24;52.19
34566;BME280;20803;42.676;26.348;2023-08-12T02:55:57;99024.41;;;23.30;52.21
34566;BME280;20803;42.676;26.348;2023-08-12T02:58:23;99032.75;;;23.34;51.21
34566;BME280;20803;42.676;26.348;2023-08-12T03:00:48;99009.44;;;23.44;50.56
34566;BME280;20803;42.676;26.348;2023-08-12T03:03:13;99020.28;;;23.46;50.49
34566;BME280;20803;42.676;26.348;2023-08-12T03:05:39;99024.41;;;23.30;50.70
34566;BME280;20803;42.676;26.348;2023-08-12T03:08:06;99013.75;;;23.25;51.14
34566;BME280;20803;42.676;26.348;2023-08-12T03:10:33;99021.25;;;23.43;50.91
34566;BME280;20803;42.676;26.348;2023-08-12T03:12:58;99009.28;;;23.48;49.78
34566;BME280;20803;42.676;26.348;2023-08-12T03:15:24;99015.44;;;23.47;49.72
34566;BME280;20803;42.676;26.348;2023-08-12T03:17:49;99017.56;;;23.52;49.50
34566;BME280;20803;42.676;26.348;2023-08-12T03:20:15;99015.69;;;23.49;49.47
34566;BME280;20803;42.676;26.348;2023-08-12T03:22:40;99024.81;;;23.53;49.53
34566;BME280;20803;42.676;26.348;2023-08-12T03:25:08;99027.56;;;23.47;49.75
34566;BME280;20803;42.676;26.348;2023-08-12T03:27:34;99037.50;;;23.42;49.88
34566;BME280;20803;42.676;26.348;2023-08-12T03:29:59;99032.72;;;23.49;49.58
34566;BME280;20803;42.676;26.348;2023-08-12T03:32:25;99030.41;;;23.47;49.81
34566;BME280;20803;42.676;26.348;2023-08-12T03:34:51;99012.75;;;23.58;49.23
34566;BME280;20803;42.676;26.348;2023-08-12T03:37:17;99029.47;;;23.56;48.95
34566;BME280;20803;42.676;26.348;2023-08-12T03:39:42;99034.19;;;23.59;48.92
34566;BME280;20803;42.676;26.348;2023-08-12T03:42:08;99030.75;;;23.55;49.37
34566;BME280;20803;42.676;26.348;2023-08-12T03:44:33;99033.31;;;23.53;48.99
34566;BME280;20803;42.676;26.348;2023-08-12T03:46:59;99044.06;;;23.49;48.96
34566;BME280;20803;42.676;26.348;2023-08-12T03:49:24;99035.66;;;23.54;48.89
34566;BME280;20803;42.676;26.348;2023-08-12T03:51:49;99041.81;;;23.53;49.10
34566;BME280;20803;42.676;26.348;2023-08-12T03:54:15;99043.63;;;23.70;48.92
34566;BME280;20803;42.676;26.348;2023-08-12T03:56:40;99044.19;;;23.74;48.87
34566;BME280;20803;42.676;26.348;2023-08-12T03:59:06;99043.00;;;23.81;48.46
34566;BME280;20803;42.676;26.348;2023-08-12T04:01:31;99043.94;;;23.93;48.14
34566;BME280;20803;42.676;26.348;2023-08-12T04:03:56;99047.94;;;24.01;47.66
34566;BME280;20803;42.676;26.348;2023-08-12T04:06:22;99056.81;;;24.08;47.33
34566;BME280;20803;42.676;26.348;2023-08-12T04:08:47;99038.84;;;24.17;47.22
34566;BME280;20803;42.676;26.348;2023-08-12T04:11:13;99046.19;;;24.23;46.96
34566;BME280;20803;42.676;26.348;2023-08-12T04:13:38;99055.91;;;24.37;46.83
34566;BME280;20803;42.676;26.348;2023-08-12T04:16:03;99059.66;;;24.49;46.46
34566;BME280;20803;42.676;26.348;2023-08-12T04:18:29;99053.81;;;24.58;46.46
34566;BME280;20803;42.676;26.348;2023-08-12T04:20:54;99058.91;;;24.74;46.41
34566;BME280;20803;42.676;26.348;2023-08-12T04:23:20;99060.09;;;24.88;45.98
34566;BME280;20803;42.676;26.348;2023-08-12T04:25:48;99070.47;;;24.91;45.97
34566;BME280;20803;42.676;26.348;2023-08-12T04:28:15;99066.69;;;24.99;45.97
34566;BME280;20803;42.676;26.348;2023-08-12T04:30:47;99071.16;;;25.06;45.76
34566;BME280;20803;42.676;26.348;2023-08-12T04:33:13;99073.59;;;25.19;45.66
34566;BME280;20803;42.676;26.348;2023-08-12T04:35:39;99077.03;;;25.28;45.45
34566;BME280;20803;42.676;26.348;2023-08-12T04:38:05;99074.75;;;25.38;45.00
34566;BME280;20803;42.676;26.348;2023-08-12T04:40:31;99077.72;;;25.49;44.90
34566;BME280;20803;42.676;26.348;2023-08-12T04:42:57;99071.13;;;25.37;44.65
34566;BME280;20803;42.676;26.348;2023-08-12T04:45:23;99073.03;;;25.46;44.40
34566;BME280;20803;42.676;26.348;2023-08-12T04:47:48;99070.97;;;25.46;44.70
34566;BME280;20803;42.676;26.348;2023-08-12T04:50:14;99079.47;;;25.41;44.70
34566;BME280;20803;42.676;26.348;2023-08-12T04:52:39;99077.19;;;25.51;44.61
34566;BME280;20803;42.676;26.348;2023-08-12T04:55:05;99076.31;;;25.65;44.17
34566;BME280;20803;42.676;26.348;2023-08-12T04:57:30;99074.47;;;25.62;44.22
34566;BME280;20803;42.676;26.348;2023-08-12T04:59:56;99084.88;;;25.70;44.07
34566;BME280;20803;42.676;26.348;2023-08-12T05:02:21;99083.75;;;25.57;43.85
34566;BME280;20803;42.676;26.348;2023-08-12T05:04:49;99076.34;;;25.39;44.50
34566;BME280;20803;42.676;26.348;2023-08-12T05:07:15;99082.59;;;25.43;44.73
34566;BME280;20803;42.676;26.348;2023-08-12T05:09:40;99090.75;;;25.30;44.68
34566;BME280;20803;42.676;26.348;2023-08-12T05:12:09;99085.53;;;25.23;44.68
34566;BME280;20803;42.676;26.348;2023-08-12T05:14:34;99091.84;;;24.86;45.03
34566;BME280;20803;42.676;26.348;2023-08-12T05:17:00;99099.13;;;24.67;45.65
34566;BME280;20803;42.676;26.348;2023-08-12T05:19:25;99095.94;;;24.59;45.72
34566;BME280;20803;42.676;26.348;2023-08-12T05:21:50;99103.69;;;24.59;46.04
34566;BME280;20803;42.676;26.348;2023-08-12T05:24:16;99097.72;;;24.57;45.80
34566;BME280;20803;42.676;26.348;2023-08-12T05:26:41;99107.03;;;24.57;46.10
34566;BME280;20803;42.676;26.348;2023-08-12T05:29:06;99099.84;;;24.62;45.88
34566;BME280;20803;42.676;26.348;2023-08-12T05:31:32;99090.84;;;24.63;45.96
34566;BME280;20803;42.676;26.348;2023-08-12T05:33:57;99095.44;;;24.61;45.78
34566;BME280;20803;42.676;26.348;2023-08-12T05:36:23;99089.03;;;24.66;45.64
34566;BME280;20803;42.676;26.348;2023-08-12T05:38:48;99086.19;;;24.66;45.71
34566;BME280;20803;42.676;26.348;2023-08-12T05:41:13;99082.88;;;24.67;45.73
34566;BME280;20803;42.676;26.348;2023-08-12T05:43:39;99084.19;;;24.72;45.68
34566;BME280;20803;42.676;26.348;2023-08-12T05:46:04;99095.13;;;24.79;45.75
34566;BME280;20803;42.676;26.348;2023-08-12T05:48:30;99091.00;;;24.80;45.67
34566;BME280;20803;42.676;26.348;2023-08-12T05:50:55;99086.94;;;24.87;45.44
34566;BME280;20803;42.676;26.348;2023-08-12T05:53:21;99091.00;;;25.00;45.55
34566;BME280;20803;42.676;26.348;2023-08-12T05:55:47;99095.88;;;25.26;45.10
34566;BME280;20803;42.676;26.348;2023-08-12T05:58:12;99088.38;;;25.54;44.80
34566;BME280;20803;42.676;26.348;2023-08-12T06:00:38;99090.94;;;25.83;44.01
34566;BME280;20803;42.676;26.348;2023-08-12T06:03:06;99086.16;;;26.12;43.83
34566;BME280;20803;42.676;26.348;2023-08-12T06:05:31;99094.63;;;26.38;43.07
34566;BME280;20803;42.676;26.348;2023-08-12T06:07:56;99088.72;;;26.52;42.56
34566;BME280;20803;42.676;26.348;2023-08-12T06:10:22;99088.78;;;26.75;42.35
34566;BME280;20803;42.676;26.348;2023-08-12T06:12:47;99092.22;;;26.90;42.27
34566;BME280;20803;42.676;26.348;2023-08-12T06:15:13;99089.41;;;27.07;41.67
34566;BME280;20803;42.676;26.348;2023-08-12T06:17:38;99093.28;;;27.09;41.82
34566;BME280;20803;42.676;26.348;2023-08-12T06:20:04;99092.78;;;27.22;41.77
34566;BME280;20803;42.676;26.348;2023-08-12T06:22:29;99086.06;;;27.36;41.07
34566;BME280;20803;42.676;26.348;2023-08-12T06:24:55;99090.47;;;27.37;40.94
34566;BME280;20803;42.676;26.348;2023-08-12T06:27:20;99092.56;;;27.42;41.03
34566;BME280;20803;42.676;26.348;2023-08-12T06:29:46;99088.13;;;27.35;40.56
34566;BME280;20803;42.676;26.348;2023-08-12T06:32:12;99086.56;;;27.29;41.39
34566;BME280;20803;42.676;26.348;2023-08-12T06:34:38;99088.13;;;27.24;41.22
34566;BME280;20803;42.676;26.348;2023-08-12T06:37:03;99088.91;;;27.14;40.98
34566;BME280;20803;42.676;26.348;2023-08-12T06:39:29;99086.81;;;27.03;41.29
34566;BME280;20803;42.676;26.348;2023-08-12T06:41:54;99091.47;;;26.89;41.66
34566;BME280;20803;42.676;26.348;2023-08-12T06:44:21;99085.19;;;26.85;42.07
34566;BME280;20803;42.676;26.348;2023-08-12T06:46:46;99088.09;;;26.96;42.00
34566;BME280;20803;42.676;26.348;2023-08-12T06:49:12;99082.16;;;27.05;41.99
34566;BME280;20803;42.676;26.348;2023-08-12T06:51:37;99081.88;;;27.15;42.12
34566;BME280;20803;42.676;26.348;2023-08-12T06:54:03;99082.16;;;27.28;41.24
34566;BME280;20803;42.676;26.348;2023-08-12T06:56:28;99074.91;;;27.43;41.42
34566;BME280;20803;42.676;26.348;2023-08-12T06:58:54;99072.06;;;27.49;40.94
34566;BME280;20803;42.676;26.348;2023-08-12T07:01:19;99072.59;;;27.53;41.02
34566;BME280;20803;42.676;26.348;2023-08-12T07:03:44;99066.34;;;27.66;40.95
34566;BME280;20803;42.676;26.348;2023-08-12T07:06:10;99069.94;;;27.83;40.86
34566;BME280;20803;42.676;26.348;2023-08-12T07:08:35;99072.78;;;27.89;40.36
34566;BME280;20803;42.676;26.348;2023-08-12T07:11:01;99069.66;;;27.98;40.32
34566;BME280;20803;42.676;26.348;2023-08-12T07:13:26;99069.13;;;28.05;40.28
34566;BME280;20803;42.676;26.348;2023-08-12T07:15:52;99065.22;;;28.08;40.29
34566;BME280;20803;42.676;26.348;2023-08-12T07:18:17;99060.53;;;28.10;40.03
34566;BME280;20803;42.676;26.348;2023-08-12T07:20:42;99069.66;;;28.14;39.39
34566;BME280;20803;42.676;26.348;2023-08-12T07:23:08;99063.38;;;28.21;39.39
34566;BME280;20803;42.676;26.348;2023-08-12T07:25:33;99064.69;;;28.09;40.00
34566;BME280;20803;42.676;26.348;2023-08-12T07:27:59;99061.03;;;28.20;40.25
34566;BME280;20803;42.676;26.348;2023-08-12T07:30:24;99061.53;;;28.35;40.17
34566;BME280;20803;42.676;26.348;2023-08-12T07:32:50;99066.72;;;28.31;39.13
34566;BME280;20803;42.676;26.348;2023-08-12T07:35:15;99057.09;;;28.34;39.08
34566;BME280;20803;42.676;26.348;2023-08-12T07:37:41;99062.81;;;28.34;39.53
34566;BME280;20803;42.676;26.348;2023-08-12T07:40:06;99058.63;;;28.41;39.16
34566;BME280;20803;42.676;26.348;2023-08-12T07:42:33;99062.50;;;28.43;39.07
34566;BME280;20803;42.676;26.348;2023-08-12T07:44:59;99064.06;;;28.44;39.67
34566;BME280;20803;42.676;26.348;2023-08-12T07:47:24;99058.34;;;28.44;39.63
34566;BME280;20803;42.676;26.348;2023-08-12T07:49:50;99060.94;;;28.48;39.52
34566;BME280;20803;42.676;26.348;2023-08-12T07:52:15;99058.31;;;28.50;39.33
34566;BME280;20803;42.676;26.348;2023-08-12T07:54:40;99054.16;;;28.51;39.20
34566;BME280;20803;42.676;26.348;2023-08-12T07:57:06;99055.97;;;28.54;39.77
34566;BME280;20803;42.676;26.348;2023-08-12T07:59:31;99051.47;;;28.70;39.82
34566;BME280;20803;42.676;26.348;2023-08-12T08:01:57;99045.47;;;28.79;39.22
34566;BME280;20803;42.676;26.348;2023-08-12T08:04:22;99039.22;;;28.75;39.22
34566;BME280;20803;42.676;26.348;2023-08-12T08:06:48;99052.97;;;28.82;39.48
34566;BME280;20803;42.676;26.348;2023-08-12T08:09:13;99050.03;;;28.93;39.17
34566;BME280;20803;42.676;26.348;2023-08-12T08:11:38;99047.44;;;28.95;39.57
34566;BME280;20803;42.676;26.348;2023-08-12T08:14:04;99041.41;;;28.98;39.86
34566;BME280;20803;42.676;26.348;2023-08-12T08:16:29;99053.56;;;29.10;39.13
34566;BME280;20803;42.676;26.348;2023-08-12T08:18:55;99053.19;;;29.25;39.01
34566;BME280;20803;42.676;26.348;2023-08-12T08:21:20;99050.00;;;29.34;38.89
34566;BME280;20803;42.676;26.348;2023-08-12T08:23:46;99044.28;;;29.34;39.00
34566;BME280;20803;42.676;26.348;2023-08-12T08:26:12;99039.25;;;29.46;38.72
34566;BME280;20803;42.676;26.348;2023-08-12T08:28:38;99038.56;;;29.34;39.30
34566;BME280;20803;42.676;26.348;2023-08-12T08:31:03;99035.97;;;29.30;39.19
34566;BME280;20803;42.676;26.348;2023-08-12T08:33:29;99033.41;;;29.27;39.82
34566;BME280;20803;42.676;26.348;2023-08-12T08:35:54;99041.78;;;29.19;39.50
34566;BME280;20803;42.676;26.348;2023-08-12T08:38:20;99034.34;;;28.64;39.12
34566;BME280;20803;42.676;26.348;2023-08-12T08:40:45;99037.56;;;28.44;40.25
34566;BME280;20803;42.676;26.348;2023-08-12T08:43:15;99025.34;;;28.43;39.99
34566;BME280;20803;42.676;26.348;2023-08-12T08:45:41;99026.03;;;28.55;40.61
34566;BME280;20803;42.676;26.348;2023-08-12T08:48:09;99017.94;;;28.64;40.42
34566;BME280;20803;42.676;26.348;2023-08-12T08:50:37;99026.50;;;28.70;39.88
34566;BME280;20803;42.676;26.348;2023-08-12T08:53:04;99025.19;;;28.71;40.85
34566;BME280;20803;42.676;26.348;2023-08-12T08:55:31;99013.97;;;28.73;40.72
34566;BME280;20803;42.676;26.348;2023-08-12T08:57:57;99016.09;;;28.67;40.38
34566;BME280;20803;42.676;26.348;2023-08-12T09:00:23;99022.56;;;28.73;40.22
34566;BME280;20803;42.676;26.348;2023-08-12T09:02:50;99019.22;;;28.75;40.28
34566;BME280;20803;42.676;26.348;2023-08-12T09:05:16;99009.88;;;28.63;40.11
34566;BME280;20803;42.676;26.348;2023-08-12T09:07:43;99020.50;;;28.68;40.75
34566;BME280;20803;42.676;26.348;2023-08-12T09:10:12;99014.75;;;28.79;40.71
34566;BME280;20803;42.676;26.348;2023-08-12T09:12:38;99005.94;;;28.77;40.38
34566;BME280;20803;42.676;26.348;2023-08-12T09:15:04;99010.31;;;28.84;40.29
34566;BME280;20803;42.676;26.348;2023-08-12T09:17:31;99010.72;;;28.99;41.66
34566;BME280;20803;42.676;26.348;2023-08-12T09:19:58;99010.09;;;29.12;40.15
34566;BME280;20803;42.676;26.348;2023-08-12T09:22:26;99009.38;;;29.35;41.08
34566;BME280;20803;42.676;26.348;2023-08-12T09:25:01;99009.16;;;29.33;40.24
34566;BME280;20803;42.676;26.348;2023-08-12T09:27:31;98999.69;;;29.44;40.22
34566;BME280;20803;42.676;26.348;2023-08-12T09:29:56;99001.13;;;29.56;40.03
34566;BME280;20803;42.676;26.348;2023-08-12T09:32:23;98991.63;;;29.67;39.30
34566;BME280;20803;42.676;26.348;2023-08-12T09:34:50;98999.88;;;29.76;39.28
34566;BME280;20803;42.676;26.348;2023-08-12T09:37:17;98990.44;;;29.81;39.75
34566;BME280;20803;42.676;26.348;2023-08-12T09:39:43;98991.38;;;29.89;39.90
34566;BME280;20803;42.676;26.348;2023-08-12T09:42:09;98977.00;;;29.70;39.32
34566;BME280;20803;42.676;26.348;2023-08-12T09:44:38;98975.34;;;29.56;39.80
34566;BME280;20803;42.676;26.348;2023-08-12T09:47:05;98974.97;;;29.65;40.07
34566;BME280;20803;42.676;26.348;2023-08-12T09:49:30;98980.09;;;29.72;40.78
34566;BME280;20803;42.676;26.348;2023-08-12T09:51:56;98984.53;;;29.98;40.03
34566;BME280;20803;42.676;26.348;2023-08-12T09:54:22;98976.13;;;30.05;38.78
34566;BME280;20803;42.676;26.348;2023-08-12T09:56:54;98969.34;;;30.03;39.46
34566;BME280;20803;42.676;26.348;2023-08-12T09:59:23;98971.63;;;30.10;38.74
34566;BME280;20803;42.676;26.348;2023-08-12T10:01:49;98964.72;;;30.00;39.25
34566;BME280;20803;42.676;26.348;2023-08-12T10:04:21;98977.50;;;29.99;39.33
34566;BME280;20803;42.676;26.348;2023-08-12T10:06:48;98971.09;;;30.11;38.76
34566;BME280;20803;42.676;26.348;2023-08-12T10:09:17;98971.28;;;30.13;38.51
34566;BME280;20803;42.676;26.348;2023-08-12T10:11:45;98956.56;;;30.04;38.04
34566;BME280;20803;42.676;26.348;2023-08-12T10:14:11;98963.88;;;30.05;38.73
34566;BME280;20803;42.676;26.348;2023-08-12T10:16:37;98966.13;;;30.12;38.93
34566;BME280;20803;42.676;26.348;2023-08-12T10:19:05;98964.72;;;30.18;38.63
34566;BME280;20803;42.676;26.348;2023-08-12T10:21:31;98959.69;;;30.24;38.80
34566;BME280;20803;42.676;26.348;2023-08-12T10:24:00;98961.94;;;30.32;38.63
34566;BME280;20803;42.676;26.348;2023-08-12T10:26:26;98942.34;;;30.36;38.82
34566;BME280;20803;42.676;26.348;2023-08-12T10:28:51;98960.00;;;30.40;39.25
34566;BME280;20803;42.676;26.348;2023-08-12T10:31:18;98955.59;;;30.57;39.03
34566;BME280;20803;42.676;26.348;2023-08-12T10:33:44;98954.88;;;30.70;39.21
34566;BME280;20803;42.676;26.348;2023-08-12T10:36:10;98963.56;;;30.64;37.91
34566;BME280;20803;42.676;26.348;2023-08-12T10:38:36;98952.09;;;30.64;37.31
34566;BME280;20803;42.676;26.348;2023-08-12T10:41:21;98950.34;;;30.61;36.97
34566;BME280;20803;42.676;26.348;2023-08-12T10:44:00;98945.50;;;30.51;38.48
34566;BME280;20803;42.676;26.348;2023-08-12T10:46:36;98953.19;;;30.61;38.43
34566;BME280;20803;42.676;26.348;2023-08-12T10:54:28;98953.72;;;30.22;38.56
34566;BME280;20803;42.676;26.348;2023-08-12T11:04:43;98942.94;;;30.10;38.01
34566;BME280;20803;42.676;26.348;2023-08-12T11:10:05;98926.13;;;30.19;38.28
34566;BME280;20803;42.676;26.348;2023-08-12T11:12:34;98937.53;;;30.25;37.45
34566;BME280;20803;42.676;26.348;2023-08-12T11:15:01;98914.34;;;30.23;36.50
34566;BME280;20803;42.676;26.348;2023-08-12T11:17:34;98937.56;;;29.82;36.82
34566;BME280;20803;42.676;26.348;2023-08-12T11:20:01;98936.34;;;29.72;38.58
34566;BME280;20803;42.676;26.348;2023-08-12T11:22:30;98930.16;;;29.68;39.10
34566;BME280;20803;42.676;26.348;2023-08-12T11:24:55;98932.41;;;29.75;38.90
34566;BME280;20803;42.676;26.348;2023-08-12T11:27:22;98930.44;;;29.89;38.70
34566;BME280;20803;42.676;26.348;2023-08-12T11:29:49;98925.97;;;29.93;38.60
34566;BME280;20803;42.676;26.348;2023-08-12T11:32:15;98922.91;;;29.85;38.76
34566;BME280;20803;42.676;26.348;2023-08-12T11:34:41;98934.69;;;29.82;38.45
34566;BME280;20803;42.676;26.348;2023-08-12T11:37:07;98925.44;;;29.95;38.94
34566;BME280;20803;42.676;26.348;2023-08-12T11:39:32;98936.44;;;30.09;37.14
34566;BME280;20803;42.676;26.348;2023-08-12T11:41:58;98933.41;;;30.20;37.84
34566;BME280;20803;42.676;26.348;2023-08-12T11:44:23;98917.91;;;30.29;38.20
34566;BME280;20803;42.676;26.348;2023-08-12T11:46:49;98921.56;;;30.30;38.01
34566;BME280;20803;42.676;26.348;2023-08-12T11:49:15;98928.16;;;30.43;38.19
34566;BME280;20803;42.676;26.348;2023-08-12T11:51:42;98917.66;;;30.46;38.17
34566;BME280;20803;42.676;26.348;2023-08-12T11:54:10;98919.22;;;30.47;38.54
34566;BME280;20803;42.676;26.348;2023-08-12T11:56:35;98931.47;;;30.47;38.33
34566;BME280;20803;42.676;26.348;2023-08-12T11:59:01;98924.81;;;30.39;37.40
34566;BME280;20803;42.676;26.348;2023-08-12T12:01:27;98922.63;;;30.27;37.79
34566;BME280;20803;42.676;26.348;2023-08-12T12:03:54;98925.22;;;30.30;37.61
34566;BME280;20803;42.676;26.348;2023-08-12T12:06:35;98925.56;;;30.40;37.69
34566;BME280;20803;42.676;26.348;2023-08-12T12:09:06;98920.00;;;30.47;38.52
34566;BME280;20803;42.676;26.348;2023-08-12T12:11:35;98920.47;;;30.33;37.43
34566;BME280;20803;42.676;26.348;2023-08-12T12:14:06;98927.13;;;30.22;37.19
34566;BME280;20803;42.676;26.348;2023-08-12T12:16:38;98910.09;;;30.30;38.12
34566;BME280;20803;42.676;26.348;2023-08-12T12:19:19;98911.78;;;30.38;38.04
34566;BME280;20803;42.676;26.348;2023-08-12T12:21:49;98905.25;;;30.56;37.74
34566;BME280;20803;42.676;26.348;2023-08-12T12:24:15;98912.34;;;30.55;37.34
34566;BME280;20803;42.676;26.348;2023-08-12T12:26:41;98903.94;;;30.57;37.79
34566;BME280;20803;42.676;26.348;2023-08-12T12:29:07;98902.19;;;30.54;37.35
34566;BME280;20803;42.676;26.348;2023-08-12T12:31:34;98901.63;;;30.56;37.09
34566;BME280;20803;42.676;26.348;2023-08-12T12:34:01;98895.19;;;30.50;37.47
34566;BME280;20803;42.676;26.348;2023-08-12T12:36:26;98898.22;;;30.57;37.75
34566;BME280;20803;42.676;26.348;2023-08-12T12:38:52;98896.94;;;30.72;37.56
34566;BME280;20803;42.676;26.348;2023-08-12T12:41:17;98901.63;;;30.88;38.01
34566;BME280;20803;42.676;26.348;2023-08-12T12:43:43;98893.59;;;30.99;37.27
34566;BME280;20803;42.676;26.348;2023-08-12T12:46:08;98893.19;;;31.09;36.79
34566;BME280;20803;42.676;26.348;2023-08-12T12:48:35;98889.56;;;31.21;37.07
34566;BME280;20803;42.676;26.348;2023-08-12T12:51:02;98886.03;;;31.15;36.40
34566;BME280;20803;42.676;26.348;2023-08-12T12:53:28;98883.88;;;31.02;36.89
34566;BME280;20803;42.676;26.348;2023-08-12T12:55:53;98881.66;;;30.95;36.70
34566;BME280;20803;42.676;26.348;2023-08-12T12:58:19;98878.25;;;30.97;37.08
34566;BME280;20803;42.676;26.348;2023-08-12T13:00:47;98874.13;;;30.92;36.51
34566;BME280;20803;42.676;26.348;2023-08-12T13:03:13;98875.25;;;30.89;36.95
34566;BME280;20803;42.676;26.348;2023-08-12T13:05:38;98869.50;;;30.89;37.07